Time;durP1;ratioP1;P1;durP2;ratioP2;P2;SDS_P1;SDS_P2;PMS_P1;PMS_P2;Temp;Humidity;BMP_temperature;BMP_pressure;BME280_temperature;BME280_humidity;BME280_pressure;Samples;Min_cycle;Max_cycle;Signal;HPM_P1;HPM_P2
2021/01/18 00:01:59;;;;;;;11.05;5.90;;;5.60;71.90;;;;;;2343349;54;20934;-75
2021/01/18 00:04:25;;;;;;;9.15;5.85;;;5.60;72.00;;;;;;2585000;52;20956;-74
2021/01/18 00:06:52;;;;;;;9.63;4.90;;;5.60;71.90;;;;;;2598853;52;21443;-76
2021/01/18 00:09:18;;;;;;;10.60;5.47;;;5.60;72.00;;;;;;2593014;52;21052;-75
2021/01/18 00:11:45;;;;;;;8.48;4.62;;;5.60;71.90;;;;;;2584611;52;20976;-75
2021/01/18 00:14:11;;;;;;;10.95;4.78;;;5.70;72.00;;;;;;2588001;52;21000;-75
2021/01/18 00:16:38;;;;;;;8.68;4.87;;;5.70;72.10;;;;;;2591142;52;20991;-75
2021/01/18 00:19:05;;;;;;;11.35;5.30;;;5.70;72.00;;;;;;2614013;52;21554;-75
2021/01/18 00:21:31;;;;;;;8.98;4.55;;;5.70;72.00;;;;;;2598620;52;21040;-75
2021/01/18 00:23:58;;;;;;;10.13;4.68;;;5.70;72.00;;;;;;2575427;52;21002;-75
2021/01/18 00:26:24;;;;;;;10.07;5.05;;;5.70;71.90;;;;;;2582131;52;20938;-75
2021/01/18 00:28:50;;;;;;;10.55;5.32;;;5.70;71.90;;;;;;2359509;54;20953;-75
2021/01/18 00:31:17;;;;;;;10.77;5.70;;;5.70;71.90;;;;;;2588053;52;20905;-75
2021/01/18 00:33:43;;;;;;;10.73;5.78;;;5.70;72.00;;;;;;2583194;52;21056;-75
2021/01/18 00:36:10;;;;;;;10.40;4.75;;;5.70;71.90;;;;;;2592952;52;21319;-75
2021/01/18 00:38:36;;;;;;;10.20;5.15;;;5.70;71.90;;;;;;2358869;53;21044;-75
2021/01/18 00:41:02;;;;;;;12.18;5.53;;;5.70;71.90;;;;;;2591393;52;20962;-75
2021/01/18 00:43:30;;;;;;;8.68;4.85;;;5.70;71.90;;;;;;2587532;52;21064;-75
2021/01/18 00:45:56;;;;;;;9.18;5.22;;;5.70;71.90;;;;;;2586406;52;20972;-75
2021/01/18 00:48:23;;;;;;;9.65;4.95;;;5.70;71.90;;;;;;2346041;54;21827;-75
2021/01/18 01:04:41;;;;;;;12.35;5.60;;;5.70;71.80;;;;;;2589335;52;21084;-75
2021/01/18 01:07:07;;;;;;;11.48;5.10;;;5.70;71.90;;;;;;2579213;53;20948;-76
2021/01/18 01:09:34;;;;;;;9.15;4.80;;;5.70;71.90;;;;;;2582944;53;22584;-76
2021/01/18 01:12:00;;;;;;;9.13;5.25;;;5.70;72.00;;;;;;2598231;52;21732;-76
2021/01/18 01:14:26;;;;;;;10.60;4.57;;;5.70;72.10;;;;;;2341972;53;20993;-76
2021/01/18 01:16:55;;;;;;;8.32;5.12;;;5.70;72.10;;;;;;2579516;53;21785;-75
2021/01/18 01:19:21;;;;;;;9.07;4.72;;;5.70;72.10;;;;;;2570399;53;20953;-75
2021/01/18 01:21:50;;;;;;;11.00;4.37;;;5.70;72.10;;;;;;2577139;53;20973;-75
2021/01/18 01:24:19;;;;;;;8.38;4.68;;;5.70;72.20;;;;;;2600782;52;20929;-74
2021/01/18 01:26:46;;;;;;;7.82;4.18;;;5.70;72.20;;;;;;2349663;54;20957;-74
2021/01/18 01:29:12;;;;;;;7.43;4.03;;;5.70;72.10;;;;;;2560628;52;21061;-75
2021/01/18 01:31:38;;;;;;;8.07;3.30;;;5.70;72.00;;;;;;2588090;52;21029;-74
2021/01/18 01:34:05;;;;;;;8.55;4.40;;;5.70;72.00;;;;;;2579223;53;20949;-74
2021/01/18 01:36:31;;;;;;;7.87;3.75;;;5.70;72.00;;;;;;2578050;52;21005;-74
2021/01/18 01:38:57;;;;;;;8.18;4.28;;;5.70;71.90;;;;;;2586880;52;21149;-75
2021/01/18 01:41:23;;;;;;;6.75;3.58;;;5.70;71.90;;;;;;2584774;53;20936;-76
2021/01/18 01:43:49;;;;;;;6.03;3.17;;;5.70;71.80;;;;;;2591991;52;21004;-75
2021/01/18 01:46:16;;;;;;;7.32;3.17;;;5.80;71.80;;;;;;2576917;53;20957;-74
2021/01/18 01:48:43;;;;;;;6.93;3.45;;;5.70;71.60;;;;;;2586472;52;21528;-75
2021/01/18 01:51:09;;;;;;;6.43;2.83;;;5.70;71.50;;;;;;2589661;52;20978;-74
2021/01/18 01:53:35;;;;;;;6.70;3.50;;;5.70;71.50;;;;;;2577074;53;20976;-74
2021/01/18 01:56:02;;;;;;;6.95;3.80;;;5.70;71.50;;;;;;2344367;54;21124;-75
2021/01/18 01:58:28;;;;;;;6.93;3.60;;;5.70;71.50;;;;;;2358412;54;21000;-75
2021/01/18 02:00:57;;;;;;;8.85;4.30;;;5.70;71.50;;;;;;2591478;52;20972;-75
2021/01/18 02:03:56;;;;;;;7.32;3.67;;;5.70;71.50;;;;;;2349906;54;20930;-75
2021/01/18 02:06:23;;;;;;;7.35;3.83;;;5.70;71.30;;;;;;2583444;52;20942;-75
2021/01/18 02:08:50;;;;;;;7.12;3.37;;;5.70;71.40;;;;;;2585102;53;21048;-75
2021/01/18 02:11:16;;;;;;;8.70;3.95;;;5.60;71.40;;;;;;2564473;52;21042;-74
2021/01/18 02:14:01;;;;;;;8.90;4.35;;;5.70;71.40;;;;;;2579536;52;21404;-75
2021/01/18 02:17:02;;;;;;;9.45;3.42;;;5.60;71.30;;;;;;2594773;52;20904;-75
2021/01/18 02:21:23;;;;;;;9.00;4.50;;;5.60;71.20;;;;;;2587282;52;21664;-75
2021/01/18 02:25:25;;;;;;;11.43;4.40;;;5.60;71.00;;;;;;2609302;52;21059;-75
2021/01/18 02:33:27;;;;;;;10.35;3.85;;;5.60;71.10;;;;;;2576757;52;20996;-74
2021/01/18 02:38:49;;;;;;;9.05;3.33;;;5.60;71.00;;;;;;2589363;52;20969;-75
2021/01/18 02:42:23;;;;;;;7.80;3.15;;;5.60;71.10;;;;;;2509025;54;21024;-75
2021/01/18 02:44:50;;;;;;;8.98;3.87;;;5.60;71.20;;;;;;2570690;53;21475;-74
2021/01/18 02:47:18;;;;;;;10.73;3.92;;;5.60;71.60;;;;;;2592031;52;21529;-75
2021/01/18 02:49:48;;;;;;;7.32;3.50;;;5.60;71.70;;;;;;2339612;54;20933;-75
2021/01/18 02:52:15;;;;;;;7.87;3.65;;;5.50;71.70;;;;;;2585583;52;22127;-74
2021/01/18 02:54:42;;;;;;;8.35;3.60;;;5.50;71.70;;;;;;2348707;53;21015;-75
2021/01/18 02:57:14;;;;;;;10.25;4.15;;;5.50;71.80;;;;;;2581045;52;21832;-75
2021/01/18 02:59:45;;;;;;;;;;;5.50;71.80;;;;;;2599000;52;20931;-75
2021/01/18 03:09:00;;;;;;;7.68;3.47;;;5.60;71.40;;;;;;2586951;52;20055;-75
2021/01/18 03:11:49;;;;;;;10.63;2.97;;;5.60;71.20;;;;;;2577741;52;21056;-75
2021/01/18 03:14:26;;;;;;;5.75;2.40;;;5.60;71.50;;;;;;2593330;52;21639;-76
2021/01/18 03:16:53;;;;;;;4.53;2.37;;;5.50;71.50;;;;;;2577092;53;20977;-74
2021/01/18 03:19:19;;;;;;;7.78;3.40;;;5.50;71.60;;;;;;2591164;52;21016;-74
2021/01/18 03:21:46;;;;;;;6.18;3.05;;;5.50;71.70;;;;;;2591826;52;20940;-75
2021/01/18 03:24:22;;;;;;;8.30;3.78;;;5.50;71.70;;;;;;2585350;53;21723;-75
2021/01/18 03:26:49;;;;;;;5.75;3.12;;;5.50;71.70;;;;;;2609273;52;20907;-74
2021/01/18 03:29:15;;;;;;;8.57;3.58;;;5.50;71.80;;;;;;2598427;52;20948;-74
2021/01/18 03:31:45;;;;;;;8.50;3.58;;;5.50;71.80;;;;;;2342167;54;20953;-75
2021/01/18 03:34:11;;;;;;;8.50;4.05;;;5.50;71.80;;;;;;2342874;54;21054;-74
2021/01/18 03:36:38;;;;;;;6.40;3.17;;;5.50;71.70;;;;;;2581465;52;21016;-75
2021/01/18 03:39:05;;;;;;;7.43;3.10;;;5.50;71.70;;;;;;2362963;54;21492;-74
2021/01/18 03:41:33;;;;;;;4.62;2.37;;;5.50;71.80;;;;;;2346702;54;20946;-74
2021/01/18 03:43:59;;;;;;;5.35;2.70;;;5.50;71.80;;;;;;2598644;52;21077;-74
2021/01/18 03:46:26;;;;;;;5.97;2.75;;;5.50;71.70;;;;;;2587616;52;21021;-74
2021/01/18 03:48:55;;;;;;;6.50;2.90;;;5.50;71.70;;;;;;2585934;52;21112;-74
2021/01/18 03:51:29;;;;;;;6.22;2.65;;;5.50;71.70;;;;;;2564318;53;21014;-74
2021/01/18 03:53:57;;;;;;;4.85;2.47;;;5.50;71.70;;;;;;2550524;53;20945;-74
2021/01/18 03:56:24;;;;;;;7.07;2.47;;;5.50;71.60;;;;;;2339077;54;20950;-74
2021/01/18 03:58:53;;;;;;;5.18;2.60;;;5.50;71.60;;;;;;2590084;52;21542;-74
2021/01/18 04:01:20;;;;;;;6.20;2.45;;;5.50;71.60;;;;;;2346210;54;20929;-74
2021/01/18 04:03:46;;;;;;;5.85;2.72;;;5.50;71.50;;;;;;2588972;52;21399;-74
2021/01/18 04:06:16;;;;;;;5.55;3.10;;;5.50;71.50;;;;;;2610081;52;20950;-74
2021/01/18 04:08:43;;;;;;;7.53;2.92;;;5.50;71.50;;;;;;2351652;54;20976;-74
2021/01/18 04:11:10;;;;;;;5.70;2.83;;;5.50;71.50;;;;;;2589467;53;20989;-74
2021/01/18 04:13:37;;;;;;;6.07;2.83;;;5.50;71.60;;;;;;2585018;52;21017;-75
2021/01/18 04:16:04;;;;;;;9.48;4.40;;;5.50;71.60;;;;;;2320468;54;20941;-74
2021/01/18 04:18:30;;;;;;;7.18;3.00;;;5.50;71.50;;;;;;2341272;54;20997;-74
2021/01/18 04:20:56;;;;;;;7.43;3.33;;;5.50;71.40;;;;;;2577160;53;20973;-75
2021/01/18 04:23:23;;;;;;;7.35;3.67;;;5.50;72.00;;;;;;2353770;54;21493;-74
2021/01/18 04:25:49;;;;;;;7.45;3.62;;;5.50;71.30;;;;;;2577547;52;21476;-75
2021/01/18 04:28:15;;;;;;;11.55;4.70;;;5.50;71.30;;;;;;2570958;52;21835;-74
2021/01/18 04:30:43;;;;;;;30.15;10.40;;;5.40;71.30;;;;;;2564499;53;20988;-74
2021/01/18 04:33:10;;;;;;;17.58;7.22;;;5.50;71.50;;;;;;2574127;52;21021;-74
2021/01/18 04:35:39;;;;;;;14.00;5.32;;;5.40;71.30;;;;;;2564244;52;20957;-74
2021/01/18 04:38:08;;;;;;;7.68;3.75;;;5.50;71.40;;;;;;2585513;52;20964;-74
2021/01/18 04:40:34;;;;;;;9.80;3.33;;;5.40;71.30;;;;;;2567561;52;21026;-74
2021/01/18 04:43:00;;;;;;;7.75;2.80;;;5.40;71.30;;;;;;2338182;54;20964;-75
2021/01/18 04:45:27;;;;;;;6.65;2.65;;;5.40;71.40;;;;;;2575034;53;21577;-74
2021/01/18 04:47:55;;;;;;;6.35;2.85;;;5.40;71.50;;;;;;2563789;52;21032;-74
2021/01/18 04:50:24;;;;;;;6.10;3.40;;;5.40;71.50;;;;;;2561644;53;20968;-74
2021/01/18 04:52:54;;;;;;;8.82;3.33;;;5.40;71.50;;;;;;2350346;54;20953;-75
2021/01/18 04:55:49;;;;;;;7.90;3.15;;;5.40;71.50;;;;;;2551607;52;21056;-74
2021/01/18 04:58:16;;;;;;;6.70;2.97;;;5.40;71.50;;;;;;2574905;52;21422;-74
2021/01/18 05:00:53;;;;;;;7.95;2.97;;;5.40;71.50;;;;;;2567320;53;21051;-74
2021/01/18 05:03:25;;;;;;;6.18;3.10;;;5.40;71.50;;;;;;2573175;52;20965;-75
2021/01/18 05:08:32;;;;;;;6.93;2.85;;;5.40;71.70;;;;;;2342884;53;20982;-74
2021/01/18 05:11:00;;;;;;;7.85;3.55;;;5.40;71.10;;;;;;2348773;54;21032;-75
2021/01/18 05:13:27;;;;;;;10.18;3.92;;;5.40;71.40;;;;;;2594199;52;21408;-75
2021/01/18 05:15:54;;;;;;;8.68;3.90;;;5.40;71.50;;;;;;2602073;52;21737;-75
2021/01/18 05:18:21;;;;;;;8.48;3.80;;;5.40;71.50;;;;;;2585177;52;21013;-74
2021/01/18 05:20:47;;;;;;;7.35;3.67;;;5.40;71.50;;;;;;2339385;54;21087;-75
2021/01/18 05:23:15;;;;;;;8.70;4.50;;;5.40;71.70;;;;;;2576100;52;21025;-75
2021/01/18 05:25:41;;;;;;;9.00;4.78;;;5.40;71.80;;;;;;2549529;53;20958;-74
2021/01/18 05:28:09;;;;;;;8.43;4.82;;;5.40;71.70;;;;;;2567294;53;20939;-74
2021/01/18 05:30:37;;;;;;;12.37;5.35;;;5.40;71.80;;;;;;2539298;53;20929;-75
2021/01/18 05:33:15;;;;;;;10.32;4.70;;;5.40;71.70;;;;;;2614204;52;21042;-74
2021/01/18 05:35:46;;;;;;;9.73;4.70;;;5.40;71.60;;;;;;2562436;52;21016;-75
2021/01/18 05:38:13;;;;;;;12.02;5.00;;;5.40;71.60;;;;;;2532587;53;20967;-75
2021/01/18 05:40:44;;;;;;;12.48;5.00;;;5.40;71.60;;;;;;2570826;53;21056;-74
2021/01/18 05:43:13;;;;;;;10.23;5.43;;;5.40;71.60;;;;;;2573726;53;20947;-74
2021/01/18 05:45:44;;;;;;;9.45;5.15;;;5.40;71.60;;;;;;2578000;53;20973;-74
2021/01/18 05:48:12;;;;;;;10.98;4.45;;;5.40;71.70;;;;;;2589096;52;20938;-75
2021/01/18 05:50:38;;;;;;;8.23;4.25;;;5.40;71.80;;;;;;2581023;52;21940;-75
2021/01/18 05:53:28;;;;;;;9.30;5.07;;;5.40;71.80;;;;;;2593265;53;21001;-74
2021/01/18 05:56:17;;;;;;;11.23;5.80;;;5.40;71.70;;;;;;2574427;52;20941;-75
2021/01/18 05:58:44;;;;;;;9.30;5.20;;;5.40;71.60;;;;;;2583000;52;21027;-75
2021/01/18 06:01:10;;;;;;;9.60;4.78;;;5.40;71.70;;;;;;2570056;52;20945;-76
2021/01/18 06:03:37;;;;;;;10.15;4.75;;;5.40;71.80;;;;;;2342816;54;20936;-75
2021/01/18 06:06:04;;;;;;;9.00;4.53;;;5.40;71.90;;;;;;2549844;52;20932;-75
2021/01/18 06:08:30;;;;;;;9.70;4.40;;;5.40;71.90;;;;;;2549850;53;20929;-75
2021/01/18 06:11:03;;;;;;;9.23;4.15;;;5.40;71.90;;;;;;2550748;52;20965;-75
2021/01/18 06:13:33;;;;;;;9.88;4.32;;;5.40;71.80;;;;;;2564997;53;20980;-75
2021/01/18 06:16:17;;;;;;;8.65;4.37;;;5.40;71.90;;;;;;2554143;52;21942;-75
2021/01/18 06:18:45;;;;;;;9.32;4.93;;;5.40;71.80;;;;;;2566399;52;20994;-75
2021/01/18 06:21:12;;;;;;;10.52;6.32;;;5.50;72.00;;;;;;2569496;53;20980;-75
2021/01/18 06:23:40;;;;;;;10.32;4.72;;;5.40;71.90;;;;;;2590305;52;20973;-75
2021/01/18 06:26:07;;;;;;;9.30;4.25;;;5.40;71.90;;;;;;2594560;52;20997;-75
2021/01/18 06:28:36;;;;;;;8.30;3.42;;;5.40;71.80;;;;;;2561750;53;21021;-75
2021/01/18 06:31:11;;;;;;;9.27;3.92;;;5.40;71.90;;;;;;2544698;53;21112;-75
2021/01/18 06:33:45;;;;;;;7.97;3.50;;;5.40;71.80;;;;;;2539885;53;21417;-75
2021/01/18 06:36:19;;;;;;;7.05;3.92;;;5.40;71.80;;;;;;2569184;53;20973;-75
2021/01/18 06:39:03;;;;;;;12.07;4.65;;;5.40;71.90;;;;;;2614248;52;20973;-75
2021/01/18 06:41:33;;;;;;;10.10;4.78;;;5.40;71.90;;;;;;2362784;53;2245855;-75
2021/01/18 06:44:00;;;;;;;8.38;4.30;;;5.40;71.80;;;;;;2571318;52;20969;-75
2021/01/18 06:46:44;;;;;;;8.02;3.95;;;5.40;71.70;;;;;;2342720;53;20988;-75
2021/01/18 06:49:11;;;;;;;8.25;3.42;;;5.40;71.60;;;;;;2577428;52;21036;-76
2021/01/18 06:51:37;;;;;;;6.30;3.30;;;5.40;71.80;;;;;;2367903;53;20990;-75
2021/01/18 06:54:04;;;;;;;6.70;3.00;;;5.40;71.90;;;;;;2564484;52;21005;-75
2021/01/18 06:56:49;;;;;;;8.07;3.10;;;5.40;71.90;;;;;;2560174;53;21040;-75
2021/01/18 07:00:04;;;;;;;6.43;3.12;;;5.40;71.90;;;;;;2536968;53;21108;-76
2021/01/18 07:02:36;;;;;;;9.63;3.53;;;5.40;71.60;;;;;;2565772;52;21092;-75
2021/01/18 07:05:10;;;;;;;7.87;3.70;;;5.40;71.90;;;;;;2592337;52;20989;-75
2021/01/18 07:07:37;;;;;;;7.20;3.25;;;5.40;71.90;;;;;;2583829;52;21108;-75
2021/01/18 07:10:08;;;;;;;9.40;3.67;;;5.50;72.10;;;;;;2323110;53;20914;-74
2021/01/18 07:12:34;;;;;;;9.73;3.85;;;5.40;72.10;;;;;;2574682;53;21001;-75
2021/01/18 07:15:09;;;;;;;6.95;3.17;;;5.40;72.00;;;;;;2563924;53;21052;-74
2021/01/18 07:18:09;;;;;;;8.18;2.90;;;5.50;72.10;;;;;;2584633;52;21047;-75
2021/01/18 07:20:53;;;;;;;7.05;3.65;;;5.50;72.00;;;;;;2615875;52;21494;-74
2021/01/18 07:23:26;;;;;;;8.55;3.25;;;5.50;72.00;;;;;;2615928;52;20989;-74
2021/01/18 07:27:04;;;;;;;6.62;3.80;;;5.50;72.10;;;;;;2579344;52;21017;-75
2021/01/18 07:29:31;;;;;;;13.77;5.57;;;5.50;71.70;;;;;;2578333;52;20937;-74
2021/01/18 07:31:58;;;;;;;10.57;5.82;;;5.50;72.00;;;;;;2586368;53;20913;-75
2021/01/18 07:34:27;;;;;;;9.48;4.07;;;5.50;72.10;;;;;;2613010;52;20937;-75
2021/01/18 07:37:06;;;;;;;7.45;3.42;;;5.60;72.10;;;;;;2576446;52;20949;-76
2021/01/18 07:39:42;;;;;;;7.82;4.00;;;5.60;72.10;;;;;;2351809;54;20985;-75
2021/01/18 07:42:59;;;;;;;5.75;3.00;;;5.60;72.30;;;;;;2578148;53;20938;-75
2021/01/18 07:45:26;;;;;;;4.70;2.50;;;5.60;72.10;;;;;;2575576;52;21120;-74
2021/01/18 07:48:28;;;;;;;7.82;3.05;;;5.60;72.20;;;;;;2598205;52;20983;-74
2021/01/18 07:51:00;;;;;;;5.35;2.37;;;5.60;72.10;;;;;;2589399;52;20973;-74
2021/01/18 07:53:31;;;;;;;7.25;3.47;;;5.60;72.20;;;;;;2588978;52;20917;-74
2021/01/18 07:56:02;;;;;;;7.12;3.20;;;5.60;72.30;;;;;;2581069;52;21276;-74
2021/01/18 07:58:31;;;;;;;6.28;3.45;;;5.70;72.30;;;;;;2592218;52;20976;-75
2021/01/18 08:01:07;;;;;;;6.72;3.80;;;5.60;72.10;;;;;;2587008;52;20922;-74
2021/01/18 08:03:33;;;;;;;7.03;3.12;;;5.70;72.20;;;;;;2600806;52;20910;-74
2021/01/18 08:06:04;;;;;;;5.80;2.95;;;5.70;72.30;;;;;;2577683;52;21067;-74
2021/01/18 08:08:31;;;;;;;5.60;3.17;;;5.70;72.30;;;;;;2595878;52;20882;-74
2021/01/18 08:11:18;;;;;;;7.68;3.47;;;5.70;72.20;;;;;;2341850;54;20921;-74
2021/01/18 08:14:03;;;;;;;7.32;3.60;;;5.70;72.10;;;;;;2357003;54;20982;-75
2021/01/18 08:16:49;;;;;;;7.25;3.78;;;5.70;72.00;;;;;;2613365;52;20936;-74
2021/01/18 08:19:26;;;;;;;5.68;3.25;;;5.70;72.20;;;;;;2575850;53;21565;-74
2021/01/18 08:22:00;;;;;;;5.45;2.95;;;5.70;72.20;;;;;;2614981;52;21386;-74
2021/01/18 08:25:10;;;;;;;7.45;3.10;;;5.80;72.40;;;;;;2550600;53;20969;-74
2021/01/18 08:27:58;;;;;;;8.50;3.22;;;5.80;72.10;;;;;;2563245;52;20967;-74
2021/01/18 08:30:34;;;;;;;7.18;3.67;;;5.80;72.50;;;;;;2580862;52;21234;-74
2021/01/18 08:33:05;;;;;;;8.43;3.20;;;5.80;72.60;;;;;;2602485;52;21522;-75
2021/01/18 08:35:50;;;;;;;6.93;2.78;;;5.90;72.70;;;;;;2343160;53;20810;-74
2021/01/18 08:38:26;;;;;;;6.93;3.35;;;5.90;72.60;;;;;;2577548;53;21000;-74
2021/01/18 08:41:02;;;;;;;5.18;2.37;;;5.90;72.80;;;;;;2558938;52;20953;-73
2021/01/18 08:43:50;;;;;;;4.80;2.53;;;6.00;73.00;;;;;;2548218;53;20989;-75
2021/01/18 08:46:39;;;;;;;5.78;2.87;;;6.00;72.90;;;;;;2575781;53;21000;-75
2021/01/18 08:49:25;;;;;;;7.10;2.97;;;6.10;73.10;;;;;;2345902;54;20981;-75
2021/01/18 08:51:52;;;;;;;6.50;2.97;;;6.10;72.80;;;;;;2576031;52;21290;-74
2021/01/18 08:56:52;;;;;;;6.85;3.12;;;6.10;72.90;;;;;;2564792;52;20949;-74
2021/01/18 08:59:18;;;;;;;10.63;5.20;;;6.20;72.20;;;;;;2567507;52;20938;-75
2021/01/18 09:01:56;;;;;;;16.62;9.68;;;6.20;72.70;;;;;;2311248;54;21810;-74
2021/01/18 09:04:24;;;;;;;11.60;6.85;;;6.30;72.60;;;;;;2584260;52;21004;-75
2021/01/18 09:06:50;;;;;;;10.13;6.05;;;6.30;72.80;;;;;;2573964;53;21017;-75
2021/01/18 09:09:17;;;;;;;9.43;5.53;;;6.30;72.60;;;;;;2591402;53;21064;-74
2021/01/18 09:11:43;;;;;;;7.07;4.45;;;6.30;72.60;;;;;;2587216;52;21422;-75
2021/01/18 09:14:10;;;;;;;7.70;3.70;;;6.30;72.70;;;;;;2583776;53;20977;-74
2021/01/18 09:16:40;;;;;;;6.25;3.40;;;6.40;72.70;;;;;;2586167;52;21065;-74
2021/01/18 09:19:07;;;;;;;6.12;3.42;;;6.40;72.70;;;;;;2607835;52;20926;-74
2021/01/18 09:21:34;;;;;;;6.68;3.10;;;6.40;72.70;;;;;;2351108;54;21550;-74
2021/01/18 09:24:11;;;;;;;5.68;3.03;;;6.50;72.80;;;;;;2586427;53;21574;-74
2021/01/18 09:26:37;;;;;;;5.95;3.33;;;6.50;72.70;;;;;;2576586;52;20937;-74
2021/01/18 09:29:03;;;;;;;6.82;3.40;;;6.50;72.70;;;;;;2584362;52;20976;-74
2021/01/18 09:31:32;;;;;;;6.78;3.50;;;6.50;72.70;;;;;;2588053;52;21021;-74
2021/01/18 09:34:10;;;;;;;6.68;3.28;;;6.50;72.80;;;;;;2587980;53;20957;-75
2021/01/18 09:36:38;;;;;;;8.10;3.40;;;6.60;72.60;;;;;;2587810;52;20916;-75
2021/01/18 09:39:07;;;;;;;5.95;3.10;;;6.60;72.80;;;;;;2551580;53;21572;-75
2021/01/18 09:41:38;;;;;;;7.65;3.70;;;6.60;72.80;;;;;;2551911;52;21546;-74
2021/01/18 09:44:05;;;;;;;8.68;3.72;;;6.60;72.80;;;;;;2565664;53;20979;-76
2021/01/18 09:46:31;;;;;;;5.55;3.30;;;6.70;72.90;;;;;;2551480;52;20976;-76
2021/01/18 09:48:58;;;;;;;6.75;3.83;;;6.70;72.90;;;;;;2570078;53;21033;-74
2021/01/18 09:51:24;;;;;;;7.87;3.83;;;6.70;72.80;;;;;;2350020;54;21002;-74
2021/01/18 09:53:59;;;;;;;6.95;3.67;;;6.80;72.80;;;;;;2573028;53;20914;-75
2021/01/18 09:56:28;;;;;;;7.28;4.35;;;6.80;72.60;;;;;;2587553;52;21076;-75
2021/01/18 09:58:55;;;;;;;8.00;4.00;;;6.80;72.60;;;;;;2584275;52;21061;-75
2021/01/18 10:01:25;;;;;;;7.93;3.80;;;6.90;72.60;;;;;;2567138;52;20990;-75
2021/01/18 10:03:55;;;;;;;7.85;4.60;;;6.90;72.60;;;;;;2348961;54;20905;-75
2021/01/18 10:06:27;;;;;;;7.65;4.03;;;6.90;72.50;;;;;;2605751;52;20986;-74
2021/01/18 10:09:07;;;;;;;5.95;3.33;;;6.90;72.50;;;;;;2577234;52;20937;-74
2021/01/18 10:11:41;;;;;;;5.78;3.33;;;7.00;72.40;;;;;;2344342;54;21048;-74
2021/01/18 10:14:20;;;;;;;6.87;3.50;;;7.00;72.50;;;;;;2575109;52;21021;-75
2021/01/18 10:20:22;;;;;;;6.37;3.28;;;7.00;72.40;;;;;;2566209;52;21000;-75
2021/01/18 10:22:48;;;;;;;10.43;3.58;;;7.10;71.50;;;;;;2572602;53;20992;-75
2021/01/18 10:25:15;;;;;;;5.47;2.75;;;7.10;72.50;;;;;;2580601;52;20944;-76
2021/01/18 10:27:52;;;;;;;5.20;2.90;;;7.10;72.70;;;;;;2579191;53;21339;-74
2021/01/18 10:30:38;;;;;;;5.95;2.97;;;7.20;72.70;;;;;;2584004;52;20938;-76
2021/01/18 10:33:17;;;;;;;7.78;3.35;;;7.20;73.00;;;;;;2556801;53;21856;-75
2021/01/18 10:35:44;;;;;;;7.18;2.97;;;7.30;72.90;;;;;;2569888;52;21651;-75
2021/01/18 10:38:23;;;;;;;6.72;2.78;;;7.30;73.00;;;;;;2574022;53;21029;-75
2021/01/18 10:41:05;;;;;;;6.93;3.55;;;7.50;72.90;;;;;;2536555;53;21097;-75
2021/01/18 10:43:40;;;;;;;5.87;3.40;;;7.40;72.60;;;;;;2564852;52;21017;-74
2021/01/18 10:46:14;;;;;;;6.57;3.25;;;7.50;72.90;;;;;;2567077;53;20961;-75
2021/01/18 10:48:42;;;;;;;6.57;3.17;;;7.50;72.60;;;;;;2583353;52;20976;-74
2021/01/18 10:51:09;;;;;;;6.50;3.62;;;7.50;72.50;;;;;;2346612;54;20994;-75
2021/01/18 10:53:35;;;;;;;5.93;2.97;;;7.60;72.70;;;;;;2572424;52;21141;-74
2021/01/18 10:56:16;;;;;;;7.97;3.22;;;7.60;72.70;;;;;;2574599;52;21005;-75
2021/01/18 10:59:12;;;;;;;6.22;3.47;;;7.60;72.30;;;;;;2565580;53;21054;-75
2021/01/18 11:01:38;;;;;;;7.00;2.75;;;7.60;72.90;;;;;;2554046;53;20973;-75
2021/01/18 11:04:05;;;;;;;5.75;3.37;;;7.70;72.50;;;;;;2558957;53;20980;-76
2021/01/18 11:06:36;;;;;;;6.68;3.12;;;7.70;72.60;;;;;;2563020;53;21636;-75
2021/01/18 11:09:03;;;;;;;7.30;3.35;;;7.70;72.50;;;;;;2557165;52;21828;-75
2021/01/18 11:11:29;;;;;;;7.43;3.47;;;7.70;72.50;;;;;;2600495;52;21102;-75
2021/01/18 11:14:05;;;;;;;6.78;3.58;;;7.70;72.40;;;;;;2552815;53;20961;-75
2021/01/18 11:16:31;;;;;;;7.57;3.67;;;7.80;72.10;;;;;;2311739;54;20966;-75
2021/01/18 11:19:00;;;;;;;7.37;4.12;;;7.80;72.10;;;;;;2549669;52;20957;-75
2021/01/18 11:21:26;;;;;;;9.80;4.22;;;7.80;71.90;;;;;;2549203;52;21993;-75
2021/01/18 11:23:53;;;;;;;6.57;4.03;;;7.80;71.90;;;;;;2560472;52;21624;-75
2021/01/18 11:26:20;;;;;;;5.90;3.75;;;7.80;71.90;;;;;;2316700;54;21418;-75
2021/01/18 11:28:47;;;;;;;8.27;4.43;;;7.80;72.80;;;;;;2576245;52;20930;-75
2021/01/18 11:31:13;;;;;;;6.97;4.07;;;7.90;72.90;;;;;;2562239;53;20981;-75
2021/01/18 11:33:40;;;;;;;7.78;4.37;;;7.90;72.20;;;;;;2551091;52;20995;-75
2021/01/18 11:36:07;;;;;;;6.93;4.05;;;7.90;72.10;;;;;;2568568;53;21005;-75
2021/01/18 11:38:33;;;;;;;9.50;4.53;;;7.90;71.90;;;;;;2329534;54;20940;-75
2021/01/18 11:41:00;;;;;;;9.15;4.50;;;8.00;72.10;;;;;;2566054;52;20968;-75
2021/01/18 11:43:30;;;;;;;10.25;4.62;;;7.90;71.70;;;;;;2592006;52;21799;-75
2021/01/18 11:46:00;;;;;;;8.85;4.90;;;7.90;71.60;;;;;;2343865;54;20931;-75
2021/01/18 11:48:27;;;;;;;8.73;5.32;;;7.90;71.20;;;;;;2560756;52;21427;-75
2021/01/18 11:50:54;;;;;;;11.05;5.12;;;7.90;71.20;;;;;;2566508;53;21099;-75
2021/01/18 11:53:20;;;;;;;8.88;4.70;;;7.90;71.30;;;;;;2349485;54;20995;-74
2021/01/18 11:55:52;;;;;;;10.07;5.47;;;7.90;71.40;;;;;;2605569;52;20925;-74
2021/01/18 11:58:19;;;;;;;9.65;4.97;;;7.90;71.40;;;;;;2594518;52;20960;-75
2021/01/18 12:00:46;;;;;;;10.15;5.22;;;7.90;71.50;;;;;;2588025;52;21534;-74
2021/01/18 12:03:12;;;;;;;9.52;5.22;;;7.90;71.60;;;;;;2595482;52;22237;-75
2021/01/18 12:05:38;;;;;;;8.85;4.90;;;7.90;71.70;;;;;;2605306;52;21031;-75
2021/01/18 12:08:06;;;;;;;8.77;4.72;;;7.90;71.70;;;;;;2584732;53;20890;-75
2021/01/18 12:10:34;;;;;;;24.52;8.35;;;7.90;71.80;;;;;;2589306;52;20946;-75
2021/01/18 12:13:05;;;;;;;20.80;9.73;;;7.90;71.60;;;;;;2581753;52;21001;-75
2021/01/18 12:15:32;;;;;;;12.07;6.10;;;8.00;71.80;;;;;;2589079;52;21045;-74
2021/01/18 12:17:58;;;;;;;8.05;4.80;;;8.00;71.80;;;;;;2578444;52;20957;-75
2021/01/18 12:20:25;;;;;;;9.38;4.45;;;8.00;71.80;;;;;;2572921;52;21033;-75
2021/01/18 12:22:54;;;;;;;7.65;4.03;;;8.00;71.80;;;;;;2552421;52;20930;-75
2021/01/18 12:25:23;;;;;;;9.45;4.18;;;8.00;71.70;;;;;;2563791;52;21045;-75
2021/01/18 12:27:50;;;;;;;6.00;3.35;;;8.10;72.00;;;;;;2574923;52;20965;-75
2021/01/18 12:30:17;;;;;;;7.80;3.80;;;8.10;72.00;;;;;;2584802;52;20937;-75
2021/01/18 12:32:44;;;;;;;8.32;4.43;;;8.10;72.00;;;;;;2570924;52;21272;-74
2021/01/18 12:35:11;;;;;;;7.45;4.18;;;8.10;72.00;;;;;;2580433;52;21072;-75
2021/01/18 12:37:38;;;;;;;7.80;3.80;;;8.10;71.80;;;;;;2585066;52;20954;-75
2021/01/18 12:40:05;;;;;;;11.30;4.43;;;8.20;72.00;;;;;;2561506;52;21061;-75
2021/01/18 12:42:32;;;;;;;10.40;4.50;;;8.20;72.10;;;;;;2340417;53;21151;-74
2021/01/18 12:45:01;;;;;;;20.67;6.68;;;8.30;72.30;;;;;;2578081;52;20960;-74
2021/01/18 12:47:27;;;;;;;14.45;5.18;;;8.20;72.20;;;;;;2576208;52;21001;-74
2021/01/18 12:49:58;;;;;;;10.43;4.80;;;8.30;72.20;;;;;;2573171;52;21024;-74
2021/01/18 12:52:24;;;;;;;12.15;5.20;;;8.30;72.10;;;;;;2344759;54;21521;-73
2021/01/18 12:54:51;;;;;;;13.90;5.57;;;8.40;72.20;;;;;;2572867;52;20973;-74
2021/01/18 12:57:18;;;;;;;14.70;6.72;;;8.40;72.20;;;;;;2581467;52;20922;-74
2021/01/18 12:59:45;;;;;;;13.48;6.10;;;8.40;72.00;;;;;;2615839;52;21489;-74
2021/01/18 13:02:12;;;;;;;9.43;5.00;;;8.40;71.90;;;;;;2353023;53;20941;-74
2021/01/18 13:04:40;;;;;;;9.10;4.47;;;8.50;71.90;;;;;;2615089;52;21001;-74
2021/01/18 13:07:06;;;;;;;7.50;3.60;;;8.50;71.70;;;;;;2611933;52;20999;-74
2021/01/18 13:09:34;;;;;;;5.60;3.33;;;8.50;71.50;;;;;;2582472;52;20949;-74
2021/01/18 13:12:01;;;;;;;6.35;3.53;;;8.50;71.30;;;;;;2594400;52;21033;-74
2021/01/18 13:14:27;;;;;;;7.15;3.30;;;8.50;71.20;;;;;;2351468;53;20961;-74
2021/01/18 13:16:54;;;;;;;5.55;3.00;;;8.50;71.30;;;;;;2582815;52;20956;-74
2021/01/18 13:19:22;;;;;;;5.00;2.78;;;8.50;71.50;;;;;;2595575;52;21545;-74
2021/01/18 13:21:54;;;;;;;6.50;3.58;;;8.50;71.40;;;;;;2559004;52;20942;-73
2021/01/18 13:24:21;;;;;;;7.20;3.17;;;8.50;71.30;;;;;;2359506;53;21465;-74
2021/01/18 13:26:47;;;;;;;6.70;3.30;;;8.50;71.40;;;;;;2337980;53;20985;-74
2021/01/18 13:29:13;;;;;;;6.25;3.37;;;8.50;71.20;;;;;;2588093;52;21050;-73
2021/01/18 13:31:41;;;;;;;6.93;3.35;;;8.50;71.20;;;;;;2578837;52;21730;-75
2021/01/18 13:34:12;;;;;;;6.87;3.33;;;8.50;71.20;;;;;;2575939;52;20902;-74
2021/01/18 13:36:39;;;;;;;4.80;2.60;;;8.50;71.10;;;;;;2534828;53;20997;-74
2021/01/18 13:39:07;;;;;;;5.12;3.08;;;8.50;71.20;;;;;;2549128;53;21112;-73
2021/01/18 13:41:33;;;;;;;5.72;3.22;;;8.50;71.20;;;;;;2603974;52;20918;-73
2021/01/18 13:44:00;;;;;;;6.85;3.10;;;8.50;71.10;;;;;;2607203;52;21027;-74
2021/01/18 13:46:26;;;;;;;5.60;3.22;;;8.50;70.90;;;;;;2593167;52;20928;-73
2021/01/18 13:48:53;;;;;;;8.38;3.72;;;8.50;70.80;;;;;;2599709;52;21418;-73
2021/01/18 13:51:23;;;;;;;7.57;3.45;;;8.40;70.50;;;;;;2595654;52;20960;-74
2021/01/18 13:53:50;;;;;;;7.00;3.60;;;8.40;70.30;;;;;;2333526;54;21462;-74
2021/01/18 13:56:17;;;;;;;5.68;3.40;;;8.40;70.30;;;;;;2566842;52;20993;-74